Time;durP1;ratioP1;P1;durP2;ratioP2;P2;SDS_P1;SDS_P2;PMS_P1;PMS_P2;Temp;Humidity;BMP_temperature;BMP_pressure;BME280_temperature;BME280_humidity;BME280_pressure;Samples;Min_cycle;Max_cycle;Signal;HPM_P1;HPM_P2
2021/06/14 00:00:25;;;;;;;4.60;3.80;;;13.40;84.10;;;;;;5035837;28;20434;-54
2021/06/14 00:02:51;;;;;;;4.10;3.63;;;13.30;84.40;;;;;;5038735;28;20417;-55
2021/06/14 00:05:29;;;;;;;6.47;4.03;;;13.30;85.50;;;;;;5041055;28;20426;-55
2021/06/14 00:07:57;;;;;;;6.57;3.87;;;13.30;85.60;;;;;;5035337;28;20449;-55
2021/06/14 00:10:25;;;;;;;4.90;4.03;;;13.20;85.90;;;;;;5034823;28;20461;-54
2021/06/14 00:12:50;;;;;;;4.50;3.33;;;13.10;86.20;;;;;;5035218;28;20812;-53
2021/06/14 00:15:16;;;;;;;6.57;3.73;;;13.10;86.80;;;;;;5036455;28;20469;-55
2021/06/14 00:17:42;;;;;;;3.77;3.33;;;13.10;87.30;;;;;;5042016;28;20171;-54
2021/06/14 00:20:11;;;;;;;6.40;4.23;;;13.00;87.60;;;;;;5039611;28;20282;-54
2021/06/14 00:22:42;;;;;;;5.20;3.93;;;13.00;87.80;;;;;;5037445;28;20181;-55
2021/06/14 00:25:10;;;;;;;4.40;3.43;;;13.00;88.50;;;;;;5035483;28;20429;-55
2021/06/14 00:27:36;;;;;;;3.83;3.53;;;13.00;88.50;;;;;;5036063;28;20418;-55
2021/06/14 00:30:04;;;;;;;4.10;3.73;;;12.90;89.20;;;;;;5039830;28;20709;-56
2021/06/14 00:32:30;;;;;;;4.60;4.20;;;12.90;89.70;;;;;;5039191;28;20215;-54
2021/06/14 00:34:56;;;;;;;7.13;4.10;;;12.90;90.00;;;;;;5016841;28;20481;-54
2021/06/14 00:37:21;;;;;;;4.47;3.83;;;12.90;90.30;;;;;;5037454;28;20172;-55
2021/06/14 00:39:47;;;;;;;9.93;4.43;;;12.80;90.40;;;;;;5034180;28;20609;-55
2021/06/14 00:42:14;;;;;;;6.07;3.77;;;12.80;90.50;;;;;;5040452;28;20182;-55
2021/06/14 00:44:40;;;;;;;5.17;3.80;;;12.80;90.60;;;;;;5035829;28;20190;-54
2021/06/14 00:47:06;;;;;;;8.03;4.30;;;12.70;90.50;;;;;;5029891;28;20434;-55
2021/06/14 00:49:32;;;;;;;4.60;3.80;;;12.70;90.60;;;;;;5030662;28;20954;-54
2021/06/14 00:51:57;;;;;;;7.63;4.60;;;12.70;90.60;;;;;;5043394;28;20178;-55
2021/06/14 00:54:24;;;;;;;4.73;3.93;;;12.60;90.60;;;;;;5043509;28;20483;-55
2021/06/14 00:56:49;;;;;;;6.80;3.87;;;12.60;90.60;;;;;;5048777;28;20175;-55
2021/06/14 00:59:15;;;;;;;4.00;3.63;;;12.60;90.90;;;;;;5043591;28;20556;-54
2021/06/14 01:01:41;;;;;;;6.33;4.30;;;12.60;91.10;;;;;;5025178;28;20238;-54
2021/06/14 01:04:07;;;;;;;4.80;4.30;;;12.50;91.20;;;;;;5048290;28;20167;-54
2021/06/14 01:06:33;;;;;;;5.80;3.67;;;12.50;91.40;;;;;;5044551;28;20412;-55
2021/06/14 01:08:59;;;;;;;13.60;4.43;;;12.40;91.40;;;;;;5028783;28;20183;-54
2021/06/14 01:11:43;;;;;;;4.70;3.60;;;12.40;91.50;;;;;;5009764;28;20563;-55
2021/06/14 01:14:19;;;;;;;7.93;4.20;;;12.40;91.40;;;;;;5027879;28;20457;-54
2021/06/14 01:16:54;;;;;;;4.60;4.07;;;12.40;91.80;;;;;;5028363;28;20437;-55
2021/06/14 01:19:54;;;;;;;4.30;3.90;;;12.30;91.70;;;;;;5037267;28;20887;-54
2021/06/14 01:22:38;;;;;;;7.77;3.70;;;12.30;91.80;;;;;;5024672;28;20433;-55
2021/06/14 01:25:15;;;;;;;4.00;3.70;;;12.30;91.80;;;;;;5040170;28;20468;-55
2021/06/14 01:27:45;;;;;;;7.00;3.70;;;12.30;92.10;;;;;;5029811;28;20821;-54
2021/06/14 01:30:15;;;;;;;4.83;4.10;;;12.20;92.10;;;;;;5028378;28;20456;-54
2021/06/14 01:32:42;;;;;;;4.77;4.27;;;12.20;92.10;;;;;;5047079;28;20464;-54
2021/06/14 01:35:11;;;;;;;4.43;4.03;;;12.20;92.10;;;;;;5040832;28;20462;-55
2021/06/14 01:37:42;;;;;;;5.70;4.40;;;12.20;91.90;;;;;;5023270;28;20817;-55
2021/06/14 01:40:09;;;;;;;7.57;4.30;;;12.20;92.10;;;;;;5038125;28;20522;-55
2021/06/14 01:42:35;;;;;;;4.83;3.57;;;12.20;91.90;;;;;;5012287;28;20437;-54
2021/06/14 01:45:03;;;;;;;5.70;4.10;;;12.10;92.20;;;;;;5025880;28;20430;-55
2021/06/14 01:47:28;;;;;;;5.30;3.70;;;12.10;92.20;;;;;;5041038;28;20413;-55
2021/06/14 01:49:54;;;;;;;4.73;4.17;;;12.10;92.10;;;;;;5044362;28;20473;-55
2021/06/14 01:52:20;;;;;;;5.10;3.80;;;12.10;92.40;;;;;;5037837;28;20172;-55
2021/06/14 01:54:47;;;;;;;7.93;4.50;;;12.00;92.20;;;;;;5034004;28;20370;-54
2021/06/14 01:57:14;;;;;;;5.70;4.30;;;12.00;92.50;;;;;;5044565;28;20472;-55
2021/06/14 01:59:41;;;;;;;6.53;5.90;;;12.00;92.70;;;;;;5046776;28;20878;-55
2021/06/14 02:02:08;;;;;;;9.97;8.10;;;12.00;92.60;;;;;;5031752;28;20434;-55
2021/06/14 02:04:36;;;;;;;8.90;6.93;;;12.00;92.90;;;;;;5033350;28;20860;-55
2021/06/14 02:07:02;;;;;;;6.90;4.63;;;12.00;93.40;;;;;;5029823;28;20406;-55
2021/06/14 02:09:29;;;;;;;4.93;4.30;;;11.90;93.30;;;;;;5029555;28;21663;-55
2021/06/14 02:11:58;;;;;;;12.90;4.43;;;11.90;93.40;;;;;;5037139;28;20433;-54
2021/06/14 02:14:26;;;;;;;5.00;4.20;;;11.90;93.40;;;;;;5043818;28;20453;-55
2021/06/14 02:16:58;;;;;;;5.07;3.83;;;11.90;93.70;;;;;;5046716;28;20856;-55
2021/06/14 02:19:24;;;;;;;8.40;3.87;;;11.90;94.10;;;;;;5034717;28;20453;-55
2021/06/14 02:21:50;;;;;;;8.17;4.50;;;11.80;94.20;;;;;;5026976;28;20476;-55
2021/06/14 02:24:16;;;;;;;7.93;4.47;;;11.80;94.30;;;;;;5016107;28;20434;-54
2021/06/14 02:26:44;;;;;;;8.50;4.10;;;11.80;94.30;;;;;;5036849;28;20182;-54
2021/06/14 02:29:09;;;;;;;7.50;4.00;;;11.70;94.10;;;;;;5032338;28;20768;-54
2021/06/14 02:31:36;;;;;;;4.60;3.70;;;11.70;93.90;;;;;;5008631;28;20434;-52
2021/06/14 02:34:04;;;;;;;9.87;4.10;;;11.70;94.20;;;;;;5045819;28;20537;-55
2021/06/14 02:36:30;;;;;;;4.30;3.77;;;11.60;94.20;;;;;;5034820;28;20491;-56
2021/06/14 02:39:00;;;;;;;5.37;4.50;;;11.60;94.20;;;;;;5044015;28;20465;-56
2021/06/14 02:41:27;;;;;;;5.03;3.63;;;11.60;94.30;;;;;;5046259;28;20619;-54
2021/06/14 02:43:53;;;;;;;10.63;4.53;;;11.60;94.30;;;;;;5039274;28;20520;-55
2021/06/14 02:46:21;;;;;;;5.73;3.93;;;11.50;94.50;;;;;;5029886;28;20796;-55
2021/06/14 02:48:49;;;;;;;4.70;4.20;;;11.50;94.50;;;;;;5027798;28;20790;-55
2021/06/14 02:51:15;;;;;;;8.27;4.70;;;11.50;94.50;;;;;;5026119;28;20423;-54
2021/06/14 02:53:43;;;;;;;6.03;4.30;;;11.50;94.80;;;;;;5042396;28;20549;-55
2021/06/14 02:56:12;;;;;;;7.50;4.43;;;11.50;94.60;;;;;;5036853;28;20441;-54
2021/06/14 02:58:40;;;;;;;4.63;4.10;;;11.50;94.50;;;;;;5031506;28;20425;-54
2021/06/14 03:01:08;;;;;;;6.97;3.77;;;11.50;94.10;;;;;;5037904;28;20464;-55
2021/06/14 03:03:40;;;;;;;8.70;3.50;;;11.50;94.10;;;;;;5017334;28;20763;-54
2021/06/14 03:06:11;;;;;;;9.30;3.70;;;11.40;94.00;;;;;;5039451;28;20511;-55
2021/06/14 03:08:38;;;;;;;5.83;4.20;;;11.40;94.20;;;;;;5028277;28;20421;-57
2021/06/14 03:11:04;;;;;;;6.70;4.03;;;11.40;94.30;;;;;;5036465;28;20474;-53
2021/06/14 03:13:30;;;;;;;10.67;4.27;;;11.30;94.30;;;;;;5026377;28;20577;-54
2021/06/14 03:15:56;;;;;;;7.07;4.50;;;11.40;94.50;;;;;;5008377;28;20537;-54
2021/06/14 03:18:25;;;;;;;6.33;5.10;;;11.30;94.70;;;;;;5031998;28;20556;-55
2021/06/14 03:20:54;;;;;;;6.87;4.50;;;11.30;94.80;;;;;;5026932;28;20467;-55
2021/06/14 03:23:20;;;;;;;5.77;4.33;;;11.30;95.00;;;;;;5044799;28;21262;-53
2021/06/14 03:25:46;;;;;;;8.60;4.23;;;11.30;95.00;;;;;;5046105;28;20879;-55
2021/06/14 03:28:14;;;;;;;8.60;3.63;;;11.30;95.10;;;;;;5043100;28;20233;-55
2021/06/14 03:30:41;;;;;;;6.57;4.60;;;11.30;95.00;;;;;;5043850;28;20214;-54
2021/06/14 03:33:08;;;;;;;7.87;4.70;;;11.30;95.40;;;;;;5050131;28;20420;-53
2021/06/14 03:35:35;;;;;;;5.37;3.73;;;11.30;95.00;;;;;;5032075;28;20429;-55
2021/06/14 03:38:00;;;;;;;7.60;4.07;;;11.30;94.80;;;;;;5030792;28;20953;-55
2021/06/14 03:40:27;;;;;;;9.40;4.40;;;11.30;95.00;;;;;;5047418;28;20446;-55
2021/06/14 03:43:01;;;;;;;9.50;4.00;;;11.30;95.00;;;;;;5050126;28;20785;-55
2021/06/14 03:45:27;;;;;;;8.13;4.03;;;11.30;94.80;;;;;;5045723;28;20460;-55
2021/06/14 03:47:53;;;;;;;7.10;4.47;;;11.30;94.60;;;;;;5040574;28;20437;-55
2021/06/14 03:50:19;;;;;;;3.80;3.50;;;11.30;95.00;;;;;;5047773;28;20453;-54
2021/06/14 03:52:45;;;;;;;8.03;4.17;;;11.30;95.00;;;;;;5046688;28;20259;-55
2021/06/14 03:55:11;;;;;;;8.23;4.10;;;11.30;95.00;;;;;;5036589;28;20591;-55
2021/06/14 03:57:38;;;;;;;4.63;3.97;;;11.30;95.10;;;;;;5029841;28;20176;-55
2021/06/14 04:00:06;;;;;;;14.40;4.70;;;11.30;94.90;;;;;;5028518;28;20471;-55
2021/06/14 04:02:32;;;;;;;5.67;3.53;;;11.40;95.30;;;;;;5043545;28;20464;-54
2021/06/14 04:04:58;;;;;;;5.83;4.07;;;11.40;95.00;;;;;;5030296;28;20915;-54
2021/06/14 04:07:24;;;;;;;5.13;3.83;;;11.50;95.60;;;;;;5043871;28;20175;-55
2021/06/14 04:09:49;;;;;;;7.83;3.80;;;11.50;95.60;;;;;;5046628;28;20481;-54
2021/06/14 04:12:15;;;;;;;9.93;3.77;;;11.60;95.50;;;;;;5024745;28;20636;-54
2021/06/14 04:14:42;;;;;;;4.53;3.90;;;11.70;95.10;;;;;;5028809;28;20351;-55
2021/06/14 04:17:09;;;;;;;8.03;3.83;;;11.70;94.30;;;;;;5039451;28;20414;-54
2021/06/14 04:19:36;;;;;;;5.20;3.90;;;11.70;93.60;;;;;;5035800;28;20438;-55
2021/06/14 04:22:02;;;;;;;6.83;3.37;;;11.70;93.90;;;;;;5038061;28;20534;-54
2021/06/14 04:24:28;;;;;;;6.50;4.27;;;11.70;94.10;;;;;;5039855;28;20514;-54
2021/06/14 04:26:54;;;;;;;6.67;3.90;;;11.80;94.10;;;;;;5030105;28;20410;-55
2021/06/14 04:29:19;;;;;;;4.53;4.10;;;11.80;94.10;;;;;;5041187;28;20294;-55
2021/06/14 04:31:45;;;;;;;5.30;4.73;;;11.90;93.90;;;;;;5042024;28;20179;-54
2021/06/14 04:34:11;;;;;;;4.77;3.60;;;11.90;93.40;;;;;;5047791;28;20191;-56
2021/06/14 04:36:37;;;;;;;8.43;4.67;;;11.90;93.50;;;;;;5042868;28;20183;-54
2021/06/14 04:39:04;;;;;;;5.57;3.90;;;12.00;93.70;;;;;;5045104;28;20175;-55
2021/06/14 04:41:29;;;;;;;7.00;4.30;;;12.00;93.60;;;;;;5028251;28;20172;-55
2021/06/14 04:43:55;;;;;;;5.97;4.43;;;12.20;94.20;;;;;;5044346;28;20441;-54
2021/06/14 04:46:21;;;;;;;7.23;3.87;;;12.30;94.20;;;;;;5041493;28;20191;-56
2021/06/14 04:48:47;;;;;;;5.20;3.93;;;12.40;93.70;;;;;;5038095;28;20213;-55
2021/06/14 04:51:13;;;;;;;12.33;4.90;;;12.50;93.60;;;;;;5022901;28;20482;-53
2021/06/14 04:53:40;;;;;;;9.43;4.70;;;12.50;93.00;;;;;;5036527;28;20230;-53
2021/06/14 04:56:06;;;;;;;6.27;4.27;;;12.60;92.70;;;;;;5034674;28;20445;-53
2021/06/14 04:58:33;;;;;;;9.40;4.63;;;12.60;91.80;;;;;;5033502;28;20962;-54
2021/06/14 05:00:59;;;;;;;11.23;5.20;;;12.60;91.70;;;;;;5034174;28;20519;-53
2021/06/14 05:03:25;;;;;;;8.40;4.80;;;12.70;91.90;;;;;;5039780;28;20438;-53
2021/06/14 05:05:51;;;;;;;10.83;5.00;;;12.80;91.90;;;;;;5034977;28;20179;-55
2021/06/14 05:08:18;;;;;;;8.90;4.70;;;12.80;91.90;;;;;;5029651;28;20183;-54
2021/06/14 05:10:45;;;;;;;7.97;4.37;;;12.80;91.50;;;;;;5038582;28;20907;-54
2021/06/14 05:13:11;;;;;;;8.90;5.43;;;12.90;91.10;;;;;;5038731;28;20425;-55
2021/06/14 05:15:36;;;;;;;7.57;4.17;;;13.00;91.40;;;;;;5041550;28;21593;-53
2021/06/14 05:18:02;;;;;;;6.97;4.70;;;13.10;91.50;;;;;;5040584;28;20171;-54
2021/06/14 05:20:30;;;;;;;8.33;4.20;;;13.20;91.50;;;;;;5036200;28;20237;-53
2021/06/14 05:22:56;;;;;;;5.67;4.20;;;13.30;91.00;;;;;;5036599;28;20244;-53
2021/06/14 05:25:23;;;;;;;8.23;4.90;;;13.40;90.70;;;;;;5036638;28;20528;-53
2021/06/14 05:27:52;;;;;;;5.10;3.90;;;13.40;90.30;;;;;;5042209;28;20430;-54
2021/06/14 05:30:18;;;;;;;8.10;4.70;;;13.50;90.10;;;;;;5039769;28;20461;-53
2021/06/14 05:32:45;;;;;;;11.63;5.00;;;13.60;90.00;;;;;;5035331;28;20517;-53
2021/06/14 05:35:11;;;;;;;13.47;7.60;;;13.70;89.90;;;;;;5038472;28;20953;-55
2021/06/14 05:37:37;;;;;;;8.83;4.97;;;13.70;90.00;;;;;;5033233;28;20591;-55
2021/06/14 05:40:05;;;;;;;10.93;5.00;;;13.80;89.70;;;;;;5041275;28;20460;-53
2021/06/14 05:42:31;;;;;;;7.93;5.50;;;13.90;90.00;;;;;;5041494;28;20482;-55
2021/06/14 05:44:57;;;;;;;9.43;5.20;;;14.00;90.00;;;;;;5033057;28;20437;-55
2021/06/14 05:47:23;;;;;;;14.20;5.70;;;14.20;88.30;;;;;;5036504;28;20425;-54
2021/06/14 05:49:49;;;;;;;9.23;5.20;;;14.30;86.60;;;;;;5041083;28;20225;-54
2021/06/14 05:52:15;;;;;;;10.23;5.37;;;14.40;86.00;;;;;;5037845;28;20437;-54
2021/06/14 05:54:40;;;;;;;8.27;5.27;;;14.50;86.70;;;;;;5029386;28;20211;-52
2021/06/14 05:57:07;;;;;;;8.57;4.60;;;14.60;86.10;;;;;;5034289;28;20292;-54
2021/06/14 05:59:33;;;;;;;7.03;4.70;;;14.70;85.40;;;;;;5033045;28;20203;-54
2021/06/14 06:01:59;;;;;;;6.53;4.30;;;14.80;85.50;;;;;;5040231;28;20500;-54
2021/06/14 06:04:25;;;;;;;8.00;4.17;;;14.90;84.20;;;;;;5040073;28;20437;-54
2021/06/14 06:06:51;;;;;;;6.17;4.20;;;15.10;83.20;;;;;;5021075;28;20257;-54
2021/06/14 06:09:16;;;;;;;10.50;4.20;;;15.20;82.20;;;;;;5037098;28;20449;-55
2021/06/14 06:11:42;;;;;;;5.03;3.93;;;15.30;81.30;;;;;;5037737;28;20194;-54
2021/06/14 06:14:08;;;;;;;7.20;4.03;;;15.50;80.50;;;;;;5042022;28;20202;-54
2021/06/14 06:16:34;;;;;;;10.10;4.07;;;15.60;80.20;;;;;;5044687;28;20776;-55
2021/06/14 06:19:00;;;;;;;5.27;3.63;;;15.70;79.90;;;;;;5040397;28;20433;-53
2021/06/14 06:21:25;;;;;;;5.47;3.80;;;15.80;77.90;;;;;;5031897;28;20187;-55
2021/06/14 06:23:51;;;;;;;5.90;3.67;;;15.90;77.70;;;;;;5042934;28;20187;-54
2021/06/14 06:26:17;;;;;;;5.80;3.60;;;16.10;76.00;;;;;;5016268;28;20206;-54
2021/06/14 06:28:42;;;;;;;8.10;3.80;;;16.20;75.80;;;;;;5038935;28;20183;-54
2021/06/14 06:31:08;;;;;;;10.23;4.13;;;16.30;74.80;;;;;;5042845;28;20277;-54
2021/06/14 06:33:35;;;;;;;5.43;3.30;;;16.40;73.30;;;;;;5032466;28;20741;-55
2021/06/14 06:36:01;;;;;;;3.80;3.40;;;16.60;71.90;;;;;;5025942;28;20183;-54
2021/06/14 06:38:26;;;;;;;5.40;3.33;;;16.70;71.70;;;;;;5023390;28;20418;-52
2021/06/14 06:40:52;;;;;;;8.77;3.73;;;16.80;68.80;;;;;;5035283;28;20195;-53
2021/06/14 06:43:18;;;;;;;8.10;3.80;;;16.90;66.50;;;;;;5029509;28;20176;-55
2021/06/14 06:45:45;;;;;;;4.33;3.33;;;17.00;65.70;;;;;;5042276;28;20183;-53
2021/06/14 06:48:10;;;;;;;8.10;3.47;;;17.10;65.40;;;;;;5036664;28;20657;-55
2021/06/14 06:50:36;;;;;;;5.00;3.23;;;17.30;63.30;;;;;;5039980;28;20454;-54
2021/06/14 06:53:03;;;;;;;6.27;3.27;;;17.40;61.80;;;;;;5041683;28;20181;-52
2021/06/14 06:55:29;;;;;;;5.03;3.50;;;17.50;60.90;;;;;;5043702;28;20187;-52
2021/06/14 06:57:55;;;;;;;4.77;3.00;;;17.70;61.00;;;;;;5046901;28;20482;-53
2021/06/14 07:00:22;;;;;;;5.40;3.73;;;17.80;60.10;;;;;;5033832;28;20996;-53
2021/06/14 07:02:49;;;;;;;3.60;3.23;;;17.90;58.60;;;;;;5040051;28;20557;-53
2021/06/14 07:05:15;;;;;;;6.37;3.50;;;18.00;57.90;;;;;;5019682;28;20508;-52
2021/06/14 07:07:44;;;;;;;3.87;2.80;;;18.10;57.90;;;;;;5040216;28;20445;-53
2021/06/14 07:10:10;;;;;;;7.97;3.50;;;18.20;57.80;;;;;;5022550;28;20493;-53
2021/06/14 07:12:37;;;;;;;4.77;3.00;;;18.40;57.20;;;;;;5040483;28;21060;-53
2021/06/14 07:15:04;;;;;;;4.53;2.90;;;18.50;55.70;;;;;;5037558;28;21243;-54
2021/06/14 07:17:30;;;;;;;6.50;3.40;;;18.50;55.00;;;;;;5039766;28;21044;-51
2021/06/14 07:19:56;;;;;;;4.87;3.03;;;18.60;55.10;;;;;;5038391;28;20590;-53
2021/06/14 07:22:21;;;;;;;4.03;2.63;;;18.80;54.80;;;;;;5043679;28;20175;-53
2021/06/14 07:24:47;;;;;;;5.40;3.13;;;18.90;54.10;;;;;;5023215;28;20628;-53
2021/06/14 07:27:13;;;;;;;5.13;3.20;;;19.00;53.70;;;;;;5043140;28;20190;-51
2021/06/14 07:29:39;;;;;;;5.37;2.93;;;19.10;53.60;;;;;;5033828;28;20880;-53
2021/06/14 07:32:05;;;;;;;7.93;2.93;;;19.10;52.60;;;;;;5040244;28;20194;-53
2021/06/14 07:34:31;;;;;;;7.90;3.10;;;19.20;52.70;;;;;;5045712;28;20203;-52
2021/06/14 07:36:57;;;;;;;4.20;3.03;;;19.30;52.80;;;;;;5046193;28;21097;-53
2021/06/14 07:39:23;;;;;;;6.20;2.77;;;19.30;53.10;;;;;;5036228;28;20453;-52
2021/06/14 07:41:49;;;;;;;6.10;2.83;;;19.30;52.90;;;;;;5027101;28;20175;-52
2021/06/14 07:44:15;;;;;;;13.50;3.87;;;19.40;52.80;;;;;;5048076;28;20182;-53
2021/06/14 07:46:40;;;;;;;4.67;2.90;;;19.50;52.20;;;;;;5048029;28;20191;-53
2021/06/14 07:49:06;;;;;;;9.77;2.90;;;19.60;52.50;;;;;;5045601;28;20205;-54
2021/06/14 07:51:32;;;;;;;4.27;2.80;;;19.70;52.30;;;;;;5039923;28;20182;-52
2021/06/14 07:53:58;;;;;;;7.17;2.97;;;19.70;52.20;;;;;;5043624;28;20191;-54
2021/06/14 07:56:24;;;;;;;5.87;2.90;;;19.80;52.60;;;;;;5042906;28;20451;-53
2021/06/14 07:58:50;;;;;;;9.13;3.30;;;19.90;52.50;;;;;;5043625;28;20179;-52
2021/06/14 08:01:16;;;;;;;3.50;3.03;;;20.00;52.00;;;;;;5046877;28;20172;-54
2021/06/14 08:03:42;;;;;;;4.10;2.90;;;20.10;51.30;;;;;;5026164;28;20444;-54
2021/06/14 08:06:08;;;;;;;7.50;3.67;;;20.20;51.00;;;;;;5028077;28;20433;-53
2021/06/14 08:08:34;;;;;;;5.00;2.80;;;20.30;50.20;;;;;;5023895;28;20229;-53
2021/06/14 08:11:01;;;;;;;9.70;3.77;;;20.30;49.80;;;;;;5020200;28;20453;-54
2021/06/14 08:13:27;;;;;;;4.90;2.87;;;20.40;49.70;;;;;;5039691;28;20172;-54
2021/06/14 08:15:54;;;;;;;3.20;2.40;;;20.50;49.20;;;;;;5023184;28;20434;-55
2021/06/14 08:25:50;;;;;;;8.63;2.47;;;20.60;49.00;;;;;;5042982;28;20445;-55
2021/06/14 08:28:16;;;;;;;6.93;2.77;;;20.70;48.90;;;;;;5037923;28;20543;-53
2021/06/14 08:30:42;;;;;;;3.03;2.33;;;20.80;48.90;;;;;;5038401;28;20849;-54
2021/06/14 08:33:08;;;;;;;5.87;2.60;;;20.80;48.30;;;;;;5047628;28;20737;-54
2021/06/14 08:35:34;;;;;;;9.63;2.40;;;20.90;47.90;;;;;;5038637;28;20484;-55
2021/06/14 08:38:00;;;;;;;7.73;2.63;;;21.00;47.40;;;;;;5041012;28;20430;-52
2021/06/14 08:40:31;;;;;;;3.77;2.43;;;21.10;46.60;;;;;;5037631;28;20281;-54
2021/06/14 08:43:04;;;;;;;3.87;2.10;;;21.20;46.30;;;;;;5040241;28;20199;-54
2021/06/14 08:45:32;;;;;;;22.23;2.67;;;21.30;46.40;;;;;;5043471;28;20757;-54
2021/06/14 08:47:59;;;;;;;4.10;2.33;;;21.40;45.70;;;;;;5041778;28;20498;-54
2021/06/14 08:50:25;;;;;;;3.40;2.33;;;21.40;45.70;;;;;;5020480;28;21010;-55
2021/06/14 08:52:51;;;;;;;5.30;2.83;;;21.50;44.80;;;;;;5027921;28;20456;-54
2021/06/14 08:55:18;;;;;;;7.33;2.53;;;21.60;44.80;;;;;;5035670;28;20878;-54
2021/06/14 08:57:44;;;;;;;5.97;2.77;;;21.60;44.50;;;;;;5036145;28;20453;-54
2021/06/14 09:00:18;;;;;;;7.20;2.93;;;21.70;44.60;;;;;;5036398;28;20446;-55
2021/06/14 09:02:45;;;;;;;8.70;2.90;;;21.80;45.70;;;;;;5039268;28;20429;-53
2021/06/14 09:05:12;;;;;;;8.47;3.27;;;21.90;45.60;;;;;;5034450;28;20429;-55
2021/06/14 09:07:40;;;;;;;4.53;2.50;;;21.90;44.80;;;;;;5021461;28;21352;-54
2021/06/14 09:10:06;;;;;;;4.97;2.10;;;22.00;45.00;;;;;;5032473;28;20472;-57
2021/06/14 09:12:38;;;;;;;5.77;2.90;;;22.10;44.00;;;;;;5047773;28;20485;-55
2021/06/14 09:15:09;;;;;;;5.30;2.50;;;22.10;43.90;;;;;;5035874;28;20504;-53
2021/06/14 09:17:35;;;;;;;4.33;2.53;;;22.20;43.50;;;;;;5038329;28;20437;-54
2021/06/14 09:20:01;;;;;;;3.97;2.10;;;22.40;43.10;;;;;;5036544;28;20449;-54
2021/06/14 09:22:27;;;;;;;2.43;2.20;;;22.50;43.70;;;;;;5036921;28;20172;-55
2021/06/14 09:25:06;;;;;;;8.30;2.30;;;22.60;43.20;;;;;;5040422;28;20554;-56
2021/06/14 09:27:40;;;;;;;4.77;2.00;;;22.70;42.90;;;;;;5033393;28;20421;-54
2021/06/14 09:30:17;;;;;;;2.03;1.70;;;22.80;43.40;;;;;;5017705;28;20461;-56
2021/06/14 09:33:19;;;;;;;3.70;1.87;;;22.90;43.40;;;;;;5043379;28;20426;-54
2021/06/14 09:35:45;;;;;;;5.80;2.57;;;22.90;42.40;;;;;;5007511;28;20951;-54
2021/06/14 09:38:17;;;;;;;4.40;2.00;;;23.10;43.00;;;;;;5039401;28;20434;-54
2021/06/14 09:40:46;;;;;;;2.53;2.13;;;23.10;43.00;;;;;;5037972;28;20437;-54
2021/06/14 09:43:42;;;;;;;4.97;2.27;;;23.20;41.60;;;;;;5041914;28;20426;-55
2021/06/14 09:46:20;;;;;;;6.70;2.53;;;23.40;41.10;;;;;;5003006;28;20445;-53
2021/06/14 09:48:52;;;;;;;5.00;2.40;;;23.40;41.40;;;;;;5093136;27;20288;-55
2021/06/14 09:51:18;;;;;;;12.00;2.67;;;23.50;41.40;;;;;;5055697;28;20412;-54
2021/06/14 09:53:54;;;;;;;3.33;2.00;;;23.60;42.00;;;;;;5072988;28;20210;-55
2021/06/14 09:56:28;;;;;;;2.53;2.33;;;23.70;41.60;;;;;;5072866;28;20431;-55
2021/06/14 09:58:56;;;;;;;4.93;1.90;;;23.80;40.60;;;;;;5072278;28;20459;-54
2021/06/14 10:01:26;;;;;;;7.10;2.33;;;23.90;41.50;;;;;;5067796;28;20996;-55
2021/06/14 10:03:52;;;;;;;3.00;2.00;;;24.00;40.10;;;;;;5067892;28;20434;-56
2021/06/14 10:06:30;;;;;;;2.60;1.80;;;24.10;41.90;;;;;;5070758;28;20424;-55
2021/06/14 10:08:56;;;;;;;14.20;2.33;;;24.20;41.50;;;;;;5070855;28;20428;-55
2021/06/14 10:11:22;;;;;;;8.00;2.40;;;24.30;41.20;;;;;;5076796;28;20477;-55
2021/06/14 10:13:51;;;;;;;3.70;1.83;;;24.40;39.20;;;;;;5067791;28;20200;-55
2021/06/14 10:16:23;;;;;;;4.10;2.17;;;24.50;40.00;;;;;;5070026;28;20432;-55
2021/06/14 10:18:57;;;;;;;2.33;1.60;;;24.60;39.30;;;;;;5071261;28;20420;-56
2021/06/14 10:21:30;;;;;;;1.80;1.70;;;24.70;39.60;;;;;;5064149;28;21033;-55
2021/06/14 10:24:05;;;;;;;6.47;2.10;;;24.70;38.10;;;;;;5067393;28;20430;-55
2021/06/14 10:26:32;;;;;;;2.20;1.80;;;24.90;39.30;;;;;;5070294;28;20657;-55
2021/06/14 10:28:58;;;;;;;5.70;2.00;;;25.00;40.20;;;;;;5072164;28;20768;-55
2021/06/14 10:31:24;;;;;;;4.33;2.03;;;25.10;41.10;;;;;;5072350;28;20435;-57
2021/06/14 10:33:53;;;;;;;3.90;1.70;;;25.20;40.40;;;;;;5062593;28;20179;-55
2021/06/14 10:36:27;;;;;;;2.17;1.97;;;25.20;40.30;;;;;;5073433;28;20424;-55
2021/06/14 10:38:54;;;;;;;3.83;1.97;;;25.40;41.30;;;;;;5080781;28;20428;-56
2021/06/14 10:41:22;;;;;;;7.53;2.30;;;25.50;40.20;;;;;;5072221;28;20435;-55
2021/06/14 10:43:49;;;;;;;4.50;2.20;;;25.50;39.50;;;;;;5077507;28;20511;-54
2021/06/14 10:46:17;;;;;;;3.57;1.77;;;25.50;40.00;;;;;;5080605;28;20415;-56
2021/06/14 10:48:43;;;;;;;2.23;2.00;;;25.60;39.80;;;;;;5071233;28;20509;-56
2021/06/14 10:51:17;;;;;;;5.97;1.87;;;25.70;38.50;;;;;;5071340;28;20451;-56
2021/06/14 10:53:50;;;;;;;3.83;1.67;;;25.90;39.20;;;;;;5066442;28;20433;-57
2021/06/14 10:56:16;;;;;;;8.80;2.00;;;26.00;39.20;;;;;;5066522;28;20846;-57
2021/06/14 10:58:46;;;;;;;3.50;1.90;;;26.10;36.80;;;;;;5066753;28;20528;-56
2021/06/14 11:01:15;;;;;;;3.47;2.00;;;26.20;38.10;;;;;;5059671;28;20456;-56
2021/06/14 11:03:42;;;;;;;2.43;1.90;;;26.30;39.40;;;;;;5058749;28;20913;-56
2021/06/14 11:06:22;;;;;;;2.63;1.87;;;26.40;39.10;;;;;;5050926;28;20775;-56
2021/06/14 11:08:57;;;;;;;4.93;1.67;;;26.50;39.00;;;;;;5063011;28;20459;-55
2021/06/14 11:11:23;;;;;;;4.33;1.90;;;26.60;39.00;;;;;;5053559;28;20439;-56
2021/06/14 11:13:51;;;;;;;5.57;3.00;;;26.60;38.10;;;;;;5060143;28;20436;-57
2021/06/14 11:16:17;;;;;;;3.60;1.80;;;26.60;38.50;;;;;;5062043;28;20641;-56
2021/06/14 11:18:44;;;;;;;2.17;1.73;;;26.70;37.80;;;;;;5061412;28;21040;-56
2021/06/14 11:21:19;;;;;;;4.47;2.20;;;26.80;39.70;;;;;;5068890;28;20949;-56
2021/06/14 11:23:49;;;;;;;2.70;1.70;;;26.80;40.00;;;;;;5062874;28;21313;-57
2021/06/14 11:26:30;;;;;;;4.33;1.90;;;26.90;39.00;;;;;;5066824;28;20440;-57
2021/06/14 11:28:56;;;;;;;2.63;1.80;;;27.00;38.30;;;;;;5055937;28;20421;-56
2021/06/14 11:31:24;;;;;;;3.80;2.13;;;27.00;39.20;;;;;;5055669;28;20425;-56
2021/06/14 11:33:53;;;;;;;2.30;2.10;;;27.10;39.60;;;;;;5064796;28;20428;-56
2021/06/14 11:36:27;;;;;;;3.43;1.77;;;27.20;40.10;;;;;;5052885;28;20969;-57
2021/06/14 11:38:54;;;;;;;2.57;1.73;;;27.30;38.60;;;;;;5058090;28;20428;-55
2021/06/14 11:41:28;;;;;;;1.97;1.50;;;27.40;37.40;;;;;;5062019;28;20941;-56
2021/06/14 11:44:19;;;;;;;7.70;2.40;;;27.50;39.00;;;;;;5055183;28;20433;-56
2021/06/14 11:46:45;;;;;;;7.30;2.03;;;27.60;38.20;;;;;;5056833;28;20836;-55
2021/06/14 11:49:11;;;;;;;2.60;1.73;;;27.60;37.00;;;;;;5057744;28;20547;-55
2021/06/14 11:51:37;;;;;;;5.80;1.80;;;27.70;37.90;;;;;;5054131;28;20571;-56
2021/06/14 11:54:04;;;;;;;3.67;1.83;;;27.80;37.40;;;;;;5056083;28;20182;-56
2021/06/14 11:56:36;;;;;;;5.17;1.80;;;27.80;35.30;;;;;;5062216;28;20924;-55
2021/06/14 11:59:03;;;;;;;3.63;1.77;;;27.90;37.10;;;;;;5054307;28;20500;-56
2021/06/14 12:01:31;;;;;;;3.63;1.60;;;27.90;37.00;;;;;;5059391;28;20424;-57
2021/06/14 12:04:02;;;;;;;3.83;1.90;;;28.00;36.00;;;;;;5057373;28;20425;-56
2021/06/14 12:06:44;;;;;;;2.17;1.73;;;28.00;37.40;;;;;;5060695;28;20428;-57
2021/06/14 12:09:15;;;;;;;2.20;2.00;;;28.20;38.10;;;;;;5051431;28;20424;-57
2021/06/14 12:11:42;;;;;;;2.13;1.60;;;28.30;38.00;;;;;;5062422;28;20451;-56
2021/06/14 12:14:18;;;;;;;7.50;2.07;;;28.40;38.10;;;;;;5061119;28;20433;-56
2021/06/14 12:16:48;;;;;;;2.00;1.80;;;28.50;38.00;;;;;;5054791;28;20435;-57
2021/06/14 12:19:16;;;;;;;4.23;1.57;;;28.50;38.40;;;;;;5056814;28;20280;-57
2021/06/14 12:21:50;;;;;;;10.60;1.80;;;28.60;38.60;;;;;;5056984;28;20704;-58
2021/06/14 12:24:17;;;;;;;6.87;1.83;;;28.80;37.60;;;;;;5055069;28;20183;-57
2021/06/14 12:26:43;;;;;;;2.07;1.30;;;28.90;37.20;;;;;;5065690;28;20761;-57
2021/06/14 12:29:22;;;;;;;2.43;1.73;;;29.00;37.10;;;;;;5066671;28;20231;-58
2021/06/14 12:32:03;;;;;;;1.90;1.40;;;29.10;37.00;;;;;;5062387;28;20166;-57
2021/06/14 12:34:29;;;;;;;1.80;1.37;;;29.20;35.80;;;;;;5056414;28;20170;-56
2021/06/14 12:37:00;;;;;;;2.30;1.50;;;29.20;34.80;;;;;;5063501;28;20178;-56
2021/06/14 12:39:26;;;;;;;1.70;1.60;;;29.20;35.90;;;;;;5054705;28;20270;-57
2021/06/14 12:41:52;;;;;;;3.00;1.50;;;29.30;36.20;;;;;;5055608;28;20257;-57
2021/06/14 12:44:17;;;;;;;3.83;1.57;;;29.40;35.30;;;;;;5055856;28;20166;-57
2021/06/14 12:46:43;;;;;;;2.60;1.53;;;29.40;36.00;;;;;;5063747;28;20698;-57
2021/06/14 12:49:09;;;;;;;3.93;1.50;;;29.50;35.40;;;;;;5063261;28;20220;-55
2021/06/14 12:51:42;;;;;;;2.13;1.40;;;29.60;35.50;;;;;;5059101;28;20663;-56
2021/06/14 12:54:07;;;;;;;7.80;1.93;;;29.70;35.60;;;;;;5065311;28;20166;-56
2021/06/14 12:56:36;;;;;;;2.83;1.60;;;29.80;35.60;;;;;;5066057;28;20640;-56